createdAt,value
2019-01-06T00:00:19.765Z,94610.86
2019-01-06T00:03:11.421Z,94610.86
2019-01-06T00:06:19.607Z,94614.48
2019-01-06T00:09:24.797Z,94615.88
2019-01-06T00:12:07.186Z,94621.48
2019-01-06T00:14:49.774Z,94607.27
2019-01-06T00:17:38.876Z,94607.45
2019-01-06T00:20:27.656Z,94606.69
2019-01-06T00:23:14.572Z,94604.20
2019-01-06T00:26:20.409Z,94596.05
2019-01-06T00:29:10.277Z,94599.07
2019-01-06T00:32:03.047Z,94605.08
2019-01-06T00:34:58.988Z,94601.92
2019-01-06T00:38:04.604Z,94607.73
2019-01-06T00:40:53.015Z,94611.24
2019-01-06T00:43:49.127Z,94607.92
2019-01-06T00:46:42.103Z,94609.27
2019-01-06T00:49:41.128Z,94602.59
2019-01-06T00:52:43.207Z,94598.78
2019-01-06T00:55:33.674Z,94589.70
2019-01-06T00:58:22.495Z,94584.55
2019-01-06T01:01:11.228Z,94588.13
2019-01-06T01:03:59.942Z,94579.66
2019-01-06T01:06:48.488Z,94577.73
2019-01-06T01:09:55.633Z,94575.08
2019-01-06T01:12:57.649Z,94569.73
2019-01-06T01:15:59.846Z,94564.10
2019-01-06T01:18:56.087Z,94566.31
2019-01-06T01:21:52.356Z,94563.38
2019-01-06T01:24:58.698Z,94561.14
2019-01-06T01:27:57.402Z,94563.61
2019-01-06T01:30:53.240Z,94556.91
2019-01-06T01:33:41.638Z,94558.59
2019-01-06T01:36:49.849Z,94557.55
2019-01-06T01:39:45.612Z,94549.74
2019-01-06T01:42:44.820Z,94537.68
2019-01-06T01:45:40.929Z,94537.68
2019-01-06T01:48:29.627Z,94536.94
2019-01-06T01:51:18.037Z,94535.87
2019-01-06T01:54:06.573Z,94526.86
2019-01-06T01:57:07.977Z,94525.41
2019-01-06T01:59:57.023Z,94523.89
2019-01-06T02:02:45.608Z,94519.64
2019-01-06T02:05:34.358Z,94516.85
2019-01-06T02:08:22.980Z,94509.21
2019-01-06T02:11:11.654Z,94512.35
2019-01-06T02:14:07.696Z,94501.30
2019-01-06T02:17:12.970Z,94489.80
2019-01-06T02:20:03.010Z,94499.86
2019-01-06T02:22:53.147Z,94495.66
2019-01-06T02:25:41.691Z,94496.00
2019-01-06T02:28:41.207Z,94490.22
2019-01-06T02:31:39.877Z,94490.58
2019-01-06T02:34:28.469Z,94489.40
2019-01-06T02:37:17.306Z,94490.59
2019-01-06T02:40:06.847Z,94481.34
2019-01-06T02:43:02.951Z,94478.88
2019-01-06T02:46:05.068Z,94473.80
2019-01-06T02:48:53.906Z,94471.02
2019-01-06T02:51:51.320Z,94466.59
2019-01-06T02:54:40.035Z,94461.48
2019-01-06T02:57:28.826Z,94464.71
2019-01-06T03:00:36.808Z,94466.92
2019-01-06T03:03:25.587Z,94463.16
2019-01-06T03:06:16.227Z,94460.20
2019-01-06T03:09:06.522Z,94449.19
2019-01-06T03:11:53.761Z,94446.36
2019-01-06T03:14:44.110Z,94450.36
2019-01-06T03:17:52.619Z,94450.78
2019-01-06T03:20:39.687Z,94440.63
2019-01-06T03:23:28.564Z,94432.64
2019-01-06T03:26:21.535Z,94433.91
2019-01-06T03:29:10.335Z,94422.81
2019-01-06T03:32:18.476Z,94428.63
2019-01-06T03:35:11.497Z,94421.95
2019-01-06T03:38:00.166Z,94416.09
2019-01-06T03:40:48.105Z,94414.45
2019-01-06T03:43:31.953Z,94410.14
2019-01-06T03:46:19.697Z,94417.92
2019-01-06T03:49:12.649Z,94412.63
2019-01-06T03:52:10.908Z,94420.42
2019-01-06T03:55:03.895Z,94409.48
2019-01-06T03:57:57.117Z,94418.05
2019-01-06T04:00:50.148Z,94410.73
2019-01-06T04:03:48.828Z,94417.28
2019-01-06T04:06:53.877Z,94415.03
2019-01-06T04:09:52.901Z,94417.61
2019-01-06T04:12:52.100Z,94413.34
2019-01-06T04:15:40.743Z,94413.48
2019-01-06T04:18:30.957Z,94399.06
2019-01-06T04:21:27.194Z,94399.53
2019-01-06T04:24:16.291Z,94399.53
2019-01-06T04:27:21.280Z,94400.50
2019-01-06T04:30:10.041Z,94400.50
2019-01-06T04:33:13.646Z,94402.11
2019-01-06T04:36:19.132Z,94398.35
2019-01-06T04:39:18.008Z,94399.64
2019-01-06T04:42:08.299Z,94402.98
2019-01-06T04:44:57.323Z,94395.06
2019-01-06T04:47:47.230Z,94396.27
2019-01-06T04:50:52.690Z,94395.30
2019-01-06T04:53:41.047Z,94400.58
2019-01-06T04:56:29.563Z,94409.80
2019-01-06T04:59:18.598Z,94407.90
2019-01-06T05:02:14.749Z,94403.58
2019-01-06T05:05:08.091Z,94409.62
2019-01-06T05:07:58.209Z,94401.82
2019-01-06T05:10:48.434Z,94410.67
2019-01-06T05:13:41.607Z,94406.77
2019-01-06T05:16:35.691Z,94408.91
2019-01-06T05:19:28.634Z,94406.54
2019-01-06T05:22:36.929Z,94407.53
2019-01-06T05:25:33.045Z,94416.08
2019-01-06T05:28:34.873Z,94406.67
2019-01-06T05:31:42.964Z,94406.24
2019-01-06T05:34:36.184Z,94404.13
2019-01-06T05:37:35.138Z,94411.47
2019-01-06T05:40:24.024Z,94410.53
2019-01-06T05:43:17.237Z,94405.71
2019-01-06T05:46:16.103Z,94410.66
2019-01-06T05:49:24.395Z,94408.66
2019-01-06T05:52:14.462Z,94411.56
2019-01-06T05:55:10.774Z,94415.27
2019-01-06T05:57:59.263Z,94422.73
2019-01-06T06:00:40.825Z,94424.09
2019-01-06T06:03:26.757Z,94436.86
2019-01-06T06:06:07.882Z,94432.64
2019-01-06T06:08:58.121Z,94427.36
2019-01-06T06:11:46.498Z,94446.59
2019-01-06T06:14:36.651Z,94438.83
2019-01-06T06:17:30.972Z,94447.74
2019-01-06T06:20:33.301Z,94444.80
2019-01-06T06:23:35.543Z,94446.93
2019-01-06T06:26:28.906Z,94451.81
2019-01-06T06:29:31.308Z,94443.81
2019-01-06T06:32:20.324Z,94450.94
2019-01-06T06:35:08.883Z,94461.56
2019-01-06T06:37:58.756Z,94458.36
2019-01-06T06:41:00.323Z,94462.77
2019-01-06T06:44:05.438Z,94473.73
2019-01-06T06:46:58.261Z,94470.20
2019-01-06T06:49:54.296Z,94472.50
2019-01-06T06:52:43.022Z,94474.33
2019-01-06T06:55:35.478Z,94472.50
2019-01-06T06:58:29.786Z,94467.42
2019-01-06T07:01:44.591Z,94459.77
2019-01-06T07:04:40.995Z,94466.14
2019-01-06T07:07:32.798Z,94472.23
2019-01-06T07:10:21.753Z,94472.33
2019-01-06T07:13:10.219Z,94468.88
2019-01-06T07:16:15.835Z,94470.59
2019-01-06T07:19:06.023Z,94478.19
2019-01-06T07:21:54.932Z,94473.61
2019-01-06T07:24:43.294Z,94469.22
2019-01-06T07:27:39.345Z,94470.59
2019-01-06T07:30:41.748Z,94467.84
2019-01-06T07:33:28.882Z,94459.73
2019-01-06T07:36:17.345Z,94447.52
2019-01-06T07:39:16.375Z,94447.91
2019-01-06T07:42:21.074Z,94451.83
2019-01-06T07:45:23.180Z,94460.67
2019-01-06T07:48:20.208Z,94467.97
2019-01-06T07:51:07.121Z,94473.43
2019-01-06T07:54:05.076Z,94478.17
2019-01-06T07:57:13.069Z,94475.25
2019-01-06T08:00:06.147Z,94477.16
2019-01-06T08:02:56.573Z,94482.39
2019-01-06T08:05:46.619Z,94488.11
2019-01-06T08:08:39.724Z,94490.58
2019-01-06T08:11:35.596Z,94490.57
2019-01-06T08:14:24.727Z,94504.23
2019-01-06T08:17:17.735Z,94505.42
2019-01-06T08:20:15.055Z,94504.94
2019-01-06T08:23:23.652Z,94516.45
2019-01-06T08:26:23.244Z,94508.91
2019-01-06T08:29:12.787Z,94525.89
2019-01-06T08:32:11.927Z,94531.38
2019-01-06T08:35:03.072Z,94537.85
2019-01-06T08:37:55.678Z,94535.56
2019-01-06T08:40:44.096Z,94545.34
2019-01-06T08:43:52.202Z,94544.23
2019-01-06T08:46:44.856Z,94547.22
2019-01-06T08:49:30.647Z,94551.30
2019-01-06T08:52:23.548Z,94548.70
2019-01-06T08:55:12.111Z,94548.59
2019-01-06T08:57:58.151Z,94540.89
2019-01-06T09:00:48.091Z,94542.50
2019-01-06T09:03:36.691Z,94550.78
2019-01-06T09:06:33.142Z,94537.73
2019-01-06T09:09:27.558Z,94551.89
2019-01-06T09:12:42.842Z,94548.36
2019-01-06T09:15:26.307Z,94545.80
2019-01-06T09:18:16.703Z,94551.02
2019-01-06T09:21:12.888Z,94554.48
2019-01-06T09:24:01.415Z,94554.13
2019-01-06T09:26:49.776Z,94539.61
2019-01-06T09:29:42.504Z,94538.17
2019-01-06T09:32:50.850Z,94535.18
2019-01-06T09:35:56.268Z,94535.81
2019-01-06T09:38:52.609Z,94534.83
2019-01-06T09:41:48.817Z,94540.01
2019-01-06T09:44:37.469Z,94533.61
2019-01-06T09:47:45.698Z,94552.00
2019-01-06T09:50:54.263Z,94539.73
2019-01-06T09:53:42.717Z,94555.38
2019-01-06T09:56:44.840Z,94543.78
2019-01-06T09:59:53.180Z,94535.63
2019-01-06T10:02:49.555Z,94537.54
2019-01-06T10:05:38.868Z,94542.20
2019-01-06T10:08:27.468Z,94545.67
2019-01-06T10:11:26.596Z,94545.85
2019-01-06T10:14:19.692Z,94550.63
2019-01-06T10:17:15.936Z,94550.41
2019-01-06T10:20:04.959Z,94551.45
2019-01-06T10:22:55.176Z,94544.88
2019-01-06T10:25:48.922Z,94550.59
2019-01-06T10:28:41.641Z,94546.23
2019-01-06T10:31:41.010Z,94547.77
2019-01-06T10:34:39.247Z,94545.01
2019-01-06T10:37:45.308Z,94547.36
2019-01-06T10:40:51.465Z,94552.37
2019-01-06T10:43:37.377Z,94544.67
2019-01-06T10:46:19.345Z,94557.95
2019-01-06T10:49:17.302Z,94551.06
2019-01-06T10:52:13.386Z,94556.47
2019-01-06T10:55:00.664Z,94560.03
2019-01-06T10:58:09.150Z,94562.48
2019-01-06T11:01:05.089Z,94561.03
2019-01-06T11:04:03.768Z,94550.42
2019-01-06T11:06:49.902Z,94553.05
2019-01-06T11:09:42.220Z,94562.33
2019-01-06T11:12:30.884Z,94556.50
2019-01-06T11:15:30.063Z,94557.05
2019-01-06T11:18:19.716Z,94555.19
2019-01-06T11:21:10.084Z,94562.27
2019-01-06T11:23:56.558Z,94565.50
2019-01-06T11:27:01.725Z,94562.59
2019-01-06T11:29:51.920Z,94563.44
2019-01-06T11:32:51.395Z,94556.04
2019-01-06T11:35:41.487Z,94554.22
2019-01-06T11:38:30.427Z,94559.52
2019-01-06T11:41:15.425Z,94550.06
2019-01-06T11:44:23.603Z,94547.72
2019-01-06T11:47:16.453Z,94554.26
2019-01-06T11:50:06.586Z,94554.95
2019-01-06T11:53:05.530Z,94557.11
2019-01-06T11:55:54.540Z,94557.67
2019-01-06T11:59:02.976Z,94555.75
2019-01-06T12:02:11.116Z,94556.17
2019-01-06T12:04:59.765Z,94560.38
2019-01-06T12:07:46.766Z,94554.34
2019-01-06T12:10:35.791Z,94558.95
2019-01-06T12:13:24.281Z,94561.06
2019-01-06T12:16:13.014Z,94556.45
2019-01-06T12:19:06.097Z,94559.55
2019-01-06T12:22:11.461Z,94559.47
2019-01-06T12:25:01.689Z,94561.05
2019-01-06T12:27:50.232Z,94559.02
2019-01-06T12:30:43.216Z,94562.88
2019-01-06T12:33:31.563Z,94571.50
2019-01-06T12:36:20.267Z,94575.22
2019-01-06T12:39:25.769Z,94581.20
2019-01-06T12:42:15.937Z,94582.21
2019-01-06T12:45:04.505Z,94592.00
2019-01-06T12:47:54.783Z,94590.36
2019-01-06T12:50:51.071Z,94595.83
2019-01-06T12:53:41.014Z,94587.78
2019-01-06T12:56:38.632Z,94593.55
2019-01-06T12:59:26.799Z,94592.55
2019-01-06T13:02:18.482Z,94589.90
2019-01-06T13:05:23.680Z,94605.16
2019-01-06T13:08:08.799Z,94601.08
2019-01-06T13:11:12.332Z,94609.86
2019-01-06T13:14:01.157Z,94609.97
2019-01-06T13:16:49.490Z,94608.88
2019-01-06T13:19:51.981Z,94605.96
2019-01-06T13:22:48.011Z,94611.01
2019-01-06T13:25:44.570Z,94607.59
2019-01-06T13:28:37.718Z,94614.23
2019-01-06T13:31:26.581Z,94614.99
2019-01-06T13:34:28.705Z,94615.70
2019-01-06T13:37:31.204Z,94615.34
2019-01-06T13:40:21.501Z,94622.69
2019-01-06T13:43:10.314Z,94614.83
2019-01-06T13:46:15.211Z,94608.36
2019-01-06T13:49:20.346Z,94618.38
2019-01-06T13:52:09.031Z,94611.30
2019-01-06T13:55:02.654Z,94615.45
2019-01-06T13:58:01.581Z,94613.35
2019-01-06T14:01:04.406Z,94617.14
2019-01-06T14:03:53.019Z,94611.05
2019-01-06T14:06:48.919Z,94614.68
2019-01-06T14:09:53.136Z,94609.19
2019-01-06T14:12:41.454Z,94617.44
2019-01-06T14:15:30.183Z,94617.81
2019-01-06T14:18:20.245Z,94620.65
2019-01-06T14:21:08.812Z,94626.95
2019-01-06T14:24:09.452Z,94622.83
2019-01-06T14:27:02.543Z,94621.91
2019-01-06T14:30:07.738Z,94629.45
2019-01-06T14:32:57.882Z,94627.34
2019-01-06T14:35:46.974Z,94636.19
2019-01-06T14:38:42.892Z,94642.27
2019-01-06T14:41:36.110Z,94644.66
2019-01-06T14:44:38.281Z,94647.10
2019-01-06T14:47:26.979Z,94639.81
2019-01-06T14:50:35.369Z,94649.84
2019-01-06T14:53:23.781Z,94648.95
2019-01-06T14:56:12.385Z,94648.97
2019-01-06T14:59:02.780Z,94655.25
2019-01-06T15:02:05.194Z,94653.30
2019-01-06T15:05:02.660Z,94664.94
2019-01-06T15:07:51.473Z,94671.83
2019-01-06T15:10:39.854Z,94676.39
2019-01-06T15:13:38.067Z,94682.82
2019-01-06T15:16:31.260Z,94687.70
2019-01-06T15:19:20.006Z,94699.89
2019-01-06T15:22:18.855Z,94706.27
2019-01-06T15:25:08.739Z,94708.10
2019-01-06T15:28:01.757Z,94706.02
2019-01-06T15:30:49.994Z,94710.59
2019-01-06T15:33:43.053Z,94717.27
2019-01-06T15:36:31.530Z,94720.73
2019-01-06T15:39:20.371Z,94726.95
2019-01-06T15:42:22.839Z,94727.70
2019-01-06T15:45:18.844Z,94725.39
2019-01-06T15:48:07.579Z,94725.02
2019-01-06T15:51:09.616Z,94724.11
2019-01-06T15:54:02.657Z,94725.38
2019-01-06T15:56:51.234Z,94727.22
2019-01-06T15:59:44.257Z,94729.59
2019-01-06T16:02:52.606Z,94736.73
2019-01-06T16:05:42.847Z,94737.74
2019-01-06T16:08:45.101Z,94749.16
2019-01-06T16:11:35.081Z,94747.89
2019-01-06T16:14:28.305Z,94752.88
2019-01-06T16:17:18.305Z,94748.94
2019-01-06T16:20:08.347Z,94756.91
2019-01-06T16:23:01.775Z,94751.07
2019-01-06T16:25:50.366Z,94751.80
2019-01-06T16:28:49.351Z,94744.55
2019-01-06T16:31:57.239Z,94750.37
2019-01-06T16:34:48.060Z,94747.76
2019-01-06T16:37:36.374Z,94749.84
2019-01-06T16:40:25.229Z,94756.14
2019-01-06T16:43:21.489Z,94755.78
2019-01-06T16:46:10.355Z,94765.34
2019-01-06T16:49:12.821Z,94765.05
2019-01-06T16:52:09.008Z,94766.06
2019-01-06T16:54:58.979Z,94754.36
2019-01-06T16:57:47.785Z,94757.56
2019-01-06T17:00:36.781Z,94765.30
2019-01-06T17:03:39.257Z,94772.61
2019-01-06T17:06:29.433Z,94770.49
2019-01-06T17:09:18.359Z,94768.66
2019-01-06T17:12:23.469Z,94773.11
2019-01-06T17:15:12.493Z,94775.30
2019-01-06T17:18:05.293Z,94774.84
2019-01-06T17:21:10.397Z,94774.67
2019-01-06T17:24:03.484Z,94775.74
2019-01-06T17:26:52.170Z,94790.16
2019-01-06T17:29:37.653Z,94791.23
2019-01-06T17:32:26.420Z,94801.64
2019-01-06T17:35:12.262Z,94801.53
2019-01-06T17:37:59.408Z,94800.34
2019-01-06T17:40:49.620Z,94803.01
2019-01-06T17:43:38.067Z,94799.66
2019-01-06T17:46:28.111Z,94803.90
2019-01-06T17:49:29.912Z,94814.08
2019-01-06T17:52:29.236Z,94819.55
2019-01-06T17:55:22.714Z,94822.92
2019-01-06T17:58:18.730Z,94824.09
2019-01-06T18:01:23.715Z,94820.27
2019-01-06T18:04:12.217Z,94818.84
2019-01-06T18:07:14.528Z,94821.90
2019-01-06T18:10:07.478Z,94830.89
2019-01-06T18:13:12.678Z,94828.02
2019-01-06T18:16:11.506Z,94825.23
2019-01-06T18:19:04.385Z,94825.91
2019-01-06T18:21:53.216Z,94823.95
2019-01-06T18:25:01.739Z,94819.03
2019-01-06T18:27:58.150Z,94819.71
2019-01-06T18:31:06.321Z,94818.28
2019-01-06T18:33:55.010Z,94811.73
2019-01-06T18:36:50.277Z,94816.05
2019-01-06T18:39:35.098Z,94825.19
2019-01-06T18:42:32.609Z,94821.78
2019-01-06T18:45:35.184Z,94830.21
2019-01-06T18:48:23.737Z,94827.44
2019-01-06T18:51:31.973Z,94829.73
2019-01-06T18:54:27.998Z,94838.94
2019-01-06T18:57:16.786Z,94840.13
2019-01-06T19:00:15.733Z,94842.55
2019-01-06T19:03:04.486Z,94854.88
2019-01-06T19:06:09.347Z,94860.78
2019-01-06T19:08:59.256Z,94866.32
2019-01-06T19:11:51.251Z,94870.03
2019-01-06T19:14:47.370Z,94867.62
2019-01-06T19:17:55.838Z,94870.72
2019-01-06T19:20:44.929Z,94857.37
2019-01-06T19:23:42.081Z,94869.45
2019-01-06T19:26:35.440Z,94867.75
2019-01-06T19:29:24.079Z,94871.41
2019-01-06T19:32:12.788Z,94861.76
2019-01-06T19:35:18.055Z,94863.25
2019-01-06T19:38:17.546Z,94864.59
2019-01-06T19:41:06.086Z,94867.72
2019-01-06T19:43:56.126Z,94875.39
2019-01-06T19:46:51.872Z,94870.09
2019-01-06T19:49:40.665Z,94871.49
2019-01-06T19:52:42.594Z,94871.47
2019-01-06T19:55:31.451Z,94864.41
2019-01-06T19:58:36.787Z,94874.99
2019-01-06T20:01:25.369Z,94872.77
2019-01-06T20:04:21.064Z,94859.39
2019-01-06T20:07:11.500Z,94875.55
2019-01-06T20:10:07.435Z,94875.12
2019-01-06T20:13:12.708Z,94876.80
2019-01-06T20:16:15.101Z,94874.94
2019-01-06T20:19:03.940Z,94878.56
2019-01-06T20:21:52.472Z,94878.01
2019-01-06T20:24:47.071Z,94873.11
2019-01-06T20:27:49.613Z,94872.98
2019-01-06T20:30:37.885Z,94881.14
2019-01-06T20:33:29.879Z,94885.39
2019-01-06T20:36:20.362Z,94883.88
2019-01-06T20:39:08.833Z,94886.49
2019-01-06T20:42:05.012Z,94889.84
2019-01-06T20:44:53.818Z,94882.73
2019-01-06T20:47:42.684Z,94889.27
2019-01-06T20:50:31.105Z,94880.45
2019-01-06T20:53:34.292Z,94889.32
2019-01-06T20:56:22.568Z,94886.82
2019-01-06T20:59:21.550Z,94893.46
2019-01-06T21:02:10.042Z,94893.73
2019-01-06T21:05:03.129Z,94883.05
2019-01-06T21:07:56.432Z,94890.77
2019-01-06T21:10:42.880Z,94885.14
2019-01-06T21:13:39.084Z,94888.21
2019-01-06T21:16:35.207Z,94890.89
2019-01-06T21:19:31.424Z,94888.28
2019-01-06T21:22:21.613Z,94889.32
2019-01-06T21:25:20.994Z,94885.62
2019-01-06T21:28:10.955Z,94889.09
2019-01-06T21:30:59.403Z,94891.84
2019-01-06T21:33:47.908Z,94891.01
2019-01-06T21:36:33.811Z,94890.01
2019-01-06T21:39:25.710Z,94894.42
2019-01-06T21:42:18.739Z,94895.30
2019-01-06T21:45:08.699Z,94893.70
2019-01-06T21:48:07.829Z,94893.75
2019-01-06T21:51:01.319Z,94894.03
2019-01-06T21:54:03.891Z,94888.92
2019-01-06T21:56:48.603Z,94892.97
2019-01-06T21:59:37.231Z,94898.77
2019-01-06T22:02:25.735Z,94903.55
2019-01-06T22:05:24.473Z,94901.59
2019-01-06T22:08:29.717Z,94901.05
2019-01-06T22:11:19.639Z,94902.09
2019-01-06T22:14:27.735Z,94897.98
2019-01-06T22:17:24.070Z,94906.97
2019-01-06T22:20:18.587Z,94904.91
2019-01-06T22:23:08.524Z,94911.08
2019-01-06T22:25:56.092Z,94908.02
2019-01-06T22:28:47.413Z,94913.58
2019-01-06T22:31:35.810Z,94914.41
2019-01-06T22:34:24.536Z,94912.64
2019-01-06T22:37:14.468Z,94913.63
2019-01-06T22:40:19.613Z,94917.23
2019-01-06T22:43:09.507Z,94918.28
2019-01-06T22:45:58.052Z,94915.68
2019-01-06T22:48:52.041Z,94921.52
2019-01-06T22:51:47.704Z,94916.59
2019-01-06T22:54:38.021Z,94921.70
2019-01-06T22:57:26.772Z,94919.42
2019-01-06T23:00:15.318Z,94922.20
2019-01-06T23:03:08.862Z,94918.61
2019-01-06T23:05:57.510Z,94925.25
2019-01-06T23:09:02.998Z,94927.80
2019-01-06T23:11:47.065Z,94940.30
2019-01-06T23:14:34.446Z,94936.02
2019-01-06T23:17:33.626Z,94935.56
2019-01-06T23:20:29.558Z,94932.64
2019-01-06T23:23:18.465Z,94941.36
2019-01-06T23:26:17.194Z,94935.20
2019-01-06T23:29:05.738Z,94928.41
2019-01-06T23:32:05.228Z,94935.53
2019-01-06T23:35:04.369Z,94940.49
2019-01-06T23:37:56.514Z,94938.16
2019-01-06T23:40:45.226Z,94935.20
2019-01-06T23:43:33.964Z,94947.87
2019-01-06T23:46:33.343Z,94947.73
2019-01-06T23:49:25.978Z,94952.53
2019-01-06T23:52:31.297Z,94952.56
2019-01-06T23:55:39.450Z,94955.63
2019-01-06T23:58:20.705Z,94953.98
